Terminal Aerodrome Forecast
Issued by NWS

Home | Current Version | Previous Version | Text Only | Print | Product List | Glossary On
Versions: 1 2 3 4 5 6 7 8 9 10 11 12 13
000
FTUS46 KSGX 252341
TAFONT
TAF
KONT 252341Z 2600/2706 25010KT P6SM FEW040 BKN200
     FM260400 27006KT P6SM SCT035 BKN100
     FM260900 VRB04KT P6SM -SHRA BKN020 OVC035
     FM261800 VRB04KT P6SM VCSH SCT020 BKN035
     FM262200 24008KT P6SM VCSH SCT020 BKN035
     FM270200 VRB04KT P6SM VCSH BKN025 BKN035=

USA.gov is the U.S. government's official web portal to all federal, state and local government web resources and services.